Time;durP1;ratioP1;P1;durP2;ratioP2;P2;SDS_P1;SDS_P2;PMS_P1;PMS_P2;Temp;Humidity;BMP_temperature;BMP_pressure;BME280_temperature;BME280_humidity;BME280_pressure;Samples;Min_cycle;Max_cycle;Signal;HPM_P1;HPM_P2
2022/03/06 00:00:24;;;;;;;14.55;7.25;;;-1.60;99.90;;;;;;4920963;28;20400;-78
2022/03/06 00:02:50;;;;;;;13.13;7.18;;;-1.60;99.90;;;;;;4937058;28;20040;-79
2022/03/06 00:05:16;;;;;;;15.02;8.38;;;-1.50;99.90;;;;;;4938499;29;20020;-78
2022/03/06 00:07:41;;;;;;;15.82;7.63;;;-1.50;99.90;;;;;;4941238;29;20550;-78
2022/03/06 00:10:07;;;;;;;16.10;7.85;;;-1.30;99.90;;;;;;4940638;28;20036;-78
2022/03/06 00:12:33;;;;;;;16.13;8.15;;;-1.30;99.90;;;;;;4906496;28;20036;-79
2022/03/06 00:14:59;;;;;;;16.17;8.65;;;-1.30;99.90;;;;;;4939329;29;20081;-78
2022/03/06 00:17:24;;;;;;;15.90;8.85;;;0.00;99.90;;;;;;4948875;29;20483;-78
2022/03/06 00:19:50;;;;;;;16.35;8.90;;;-1.10;99.90;;;;;;4942009;29;20031;-78
2022/03/06 00:22:15;;;;;;;16.45;8.45;;;-1.00;99.90;;;;;;4940420;29;20028;-78
2022/03/06 00:24:41;;;;;;;16.77;8.45;;;-0.90;99.90;;;;;;4942889;29;20027;-78
2022/03/06 00:27:06;;;;;;;15.18;8.20;;;-0.80;99.90;;;;;;4950040;29;20039;-78
2022/03/06 00:29:32;;;;;;;19.08;8.93;;;-0.70;99.90;;;;;;4963748;29;20388;-78
2022/03/06 00:31:58;;;;;;;18.00;9.15;;;-0.90;99.90;;;;;;4938784;29;20051;-78
2022/03/06 00:34:23;;;;;;;16.95;9.07;;;-1.00;99.90;;;;;;4967634;29;20083;-77
2022/03/06 00:36:49;;;;;;;17.60;8.90;;;-1.00;99.90;;;;;;4936232;28;20483;-78
2022/03/06 00:39:14;;;;;;;13.30;7.15;;;-1.20;99.90;;;;;;4967989;29;20046;-78
2022/03/06 00:41:40;;;;;;;19.20;10.15;;;-1.00;99.90;;;;;;4940584;28;20047;-79
2022/03/06 00:44:06;;;;;;;16.27;8.13;;;-1.10;99.90;;;;;;4938512;28;20027;-79
2022/03/06 00:46:31;;;;;;;17.10;8.60;;;-1.30;99.90;;;;;;4937462;29;20066;-79
2022/03/06 00:48:57;;;;;;;18.90;9.10;;;-1.30;99.90;;;;;;4936479;29;20070;-80
2022/03/06 00:51:23;;;;;;;14.68;8.10;;;-1.20;99.90;;;;;;4923837;29;20042;-79
2022/03/06 00:53:49;;;;;;;14.55;8.30;;;-1.30;99.90;;;;;;4939529;29;20073;-79
2022/03/06 00:56:15;;;;;;;16.83;9.02;;;-1.20;99.90;;;;;;4939695;29;20032;-79
2022/03/06 00:58:41;;;;;;;17.35;8.75;;;0.00;99.90;;;;;;4956346;29;20531;-79
2022/03/06 01:01:06;;;;;;;16.05;8.93;;;-1.40;99.90;;;;;;4939846;29;20138;-79
2022/03/06 01:03:32;;;;;;;16.80;8.65;;;-1.30;99.90;;;;;;4939567;28;20023;-79
2022/03/06 01:05:58;;;;;;;16.80;8.55;;;-1.60;99.90;;;;;;4939512;28;20045;-79
2022/03/06 01:08:24;;;;;;;16.13;8.82;;;-1.60;99.90;;;;;;4939109;28;20073;-79
2022/03/06 01:10:50;;;;;;;16.55;8.50;;;-1.60;99.90;;;;;;4923392;28;20535;-79
2022/03/06 01:13:18;;;;;;;16.23;8.02;;;-1.70;99.90;;;;;;4957228;28;20023;-79
2022/03/06 01:15:44;;;;;;;17.45;9.18;;;-1.50;99.90;;;;;;4956332;28;20039;-78
2022/03/06 01:18:09;;;;;;;14.98;8.48;;;-1.50;99.90;;;;;;4942989;28;20231;-78
2022/03/06 01:20:37;;;;;;;14.65;8.25;;;-1.30;99.90;;;;;;4904796;29;20059;-79
2022/03/06 01:23:04;;;;;;;15.00;8.32;;;0.70;99.90;;;;;;4920837;29;20031;-79
2022/03/06 01:25:30;;;;;;;18.63;8.80;;;-0.60;99.90;;;;;;4921269;29;20056;-79
2022/03/06 01:27:55;;;;;;;16.25;8.35;;;-1.10;99.90;;;;;;4921262;29;20077;-79
2022/03/06 01:30:22;;;;;;;13.35;7.20;;;-1.10;99.90;;;;;;4907411;29;20051;-79
2022/03/06 01:32:49;;;;;;;17.27;7.97;;;-1.20;99.90;;;;;;4926421;28;20035;-79
2022/03/06 01:35:15;;;;;;;13.93;7.95;;;-2.00;99.90;;;;;;4957811;28;20031;-81
2022/03/06 01:37:41;;;;;;;13.60;7.97;;;-0.90;99.90;;;;;;4940357;28;20070;-80
2022/03/06 01:40:08;;;;;;;15.10;7.85;;;-0.90;99.90;;;;;;4941820;29;20395;-80
2022/03/06 01:42:37;;;;;;;17.73;8.02;;;-0.90;99.90;;;;;;4942460;28;20039;-80
2022/03/06 01:45:03;;;;;;;16.90;7.93;;;-0.70;99.90;;;;;;4959651;29;20111;-80
2022/03/06 01:47:35;;;;;;;15.07;7.85;;;-0.70;99.90;;;;;;4941436;28;20060;-80
2022/03/06 01:50:05;;;;;;;14.77;7.53;;;-0.70;99.90;;;;;;4945916;29;20030;-80
2022/03/06 01:52:31;;;;;;;13.93;7.18;;;-0.70;99.90;;;;;;4943595;28;20086;-80
2022/03/06 01:54:56;;;;;;;15.18;7.93;;;-0.70;99.90;;;;;;4944892;29;20330;-80
2022/03/06 01:57:22;;;;;;;15.60;7.55;;;-0.60;99.90;;;;;;4946667;29;20054;-80
2022/03/06 01:59:49;;;;;;;16.38;7.65;;;-0.40;99.90;;;;;;4929247;29;20488;-80
2022/03/06 02:02:15;;;;;;;15.52;7.45;;;-0.60;99.90;;;;;;4945860;29;20046;-80
2022/03/06 02:04:41;;;;;;;13.95;7.03;;;-0.30;99.90;;;;;;4929147;28;20054;-80
2022/03/06 02:07:06;;;;;;;14.13;7.75;;;1.30;99.90;;;;;;4961910;29;20031;-79
2022/03/06 02:09:32;;;;;;;14.93;7.57;;;-0.40;99.90;;;;;;4942939;28;20057;-80
2022/03/06 02:14:41;;;;;;;15.18;7.97;;;-0.40;99.90;;;;;;4948280;29;20055;-80
2022/03/06 02:17:07;;;;;;;15.25;7.63;;;1.80;99.90;;;;;;4922770;28;20035;-80
2022/03/06 02:19:55;;;;;;;14.30;7.65;;;-0.60;99.90;;;;;;4910281;29;20032;-80
2022/03/06 02:22:22;;;;;;;13.77;7.38;;;-0.30;99.90;;;;;;4949079;29;20039;-79
2022/03/06 02:24:48;;;;;;;15.43;7.75;;;2.10;99.90;;;;;;4943442;28;20030;-81
2022/03/06 02:27:14;;;;;;;17.20;8.45;;;-0.20;99.90;;;;;;4941518;28;20027;-79
2022/03/06 02:29:42;;;;;;;15.95;8.95;;;-0.10;99.90;;;;;;4927948;28;20035;-80
2022/03/06 02:32:09;;;;;;;19.35;8.43;;;-0.10;99.90;;;;;;4943655;28;20559;-80
2022/03/06 02:34:37;;;;;;;14.35;7.95;;;-0.10;99.90;;;;;;4961528;29;20049;-80
2022/03/06 02:37:03;;;;;;;16.83;8.52;;;-0.20;99.90;;;;;;4943006;28;20035;-80
2022/03/06 02:39:29;;;;;;;13.20;7.25;;;-0.20;99.90;;;;;;4943160;29;20395;-80
2022/03/06 02:41:54;;;;;;;15.90;7.93;;;-0.30;99.90;;;;;;4960845;28;20036;-82
2022/03/06 02:44:21;;;;;;;13.77;7.07;;;-0.30;99.90;;;;;;4930329;28;20169;-81
2022/03/06 02:46:47;;;;;;;13.55;7.20;;;-0.30;99.90;;;;;;4925926;28;20070;-81
2022/03/06 02:49:13;;;;;;;13.98;7.13;;;-0.40;99.90;;;;;;4932798;29;20035;-81
2022/03/06 02:51:41;;;;;;;16.75;7.93;;;-0.30;99.90;;;;;;4945196;29;20039;-81
2022/03/06 02:54:07;;;;;;;15.38;7.55;;;-0.50;99.90;;;;;;4927657;28;20050;-79
2022/03/06 02:56:34;;;;;;;14.57;8.27;;;-0.50;99.90;;;;;;4943285;29;20035;-82
2022/03/06 02:58:59;;;;;;;15.20;7.88;;;-0.60;99.90;;;;;;4944127;28;20504;-82
2022/03/06 03:01:25;;;;;;;18.25;7.85;;;-0.50;99.90;;;;;;4964254;29;20024;-82
2022/03/06 03:03:51;;;;;;;15.88;8.65;;;-0.70;99.90;;;;;;4930823;28;20035;-79
2022/03/06 03:06:17;;;;;;;15.45;7.70;;;-0.70;99.90;;;;;;4963307;29;20038;-80
2022/03/06 03:08:42;;;;;;;12.85;7.78;;;-0.70;99.90;;;;;;4944613;29;20511;-78
2022/03/06 03:11:08;;;;;;;16.27;8.30;;;-0.80;99.90;;;;;;4944455;29;20085;-78
2022/03/06 03:13:34;;;;;;;14.77;7.72;;;-0.70;99.90;;;;;;4928776;28;20035;-78
2022/03/06 03:15:59;;;;;;;13.30;7.63;;;-0.90;99.90;;;;;;4943948;29;20083;-80
2022/03/06 03:18:25;;;;;;;16.13;8.68;;;-0.90;99.90;;;;;;4940324;28;20040;-80
2022/03/06 03:20:51;;;;;;;14.75;7.85;;;-0.70;99.90;;;;;;4943445;29;20035;-80
2022/03/06 03:23:16;;;;;;;15.88;7.80;;;-0.90;99.90;;;;;;4959850;29;20089;-80
2022/03/06 03:25:42;;;;;;;14.35;7.63;;;-1.00;99.90;;;;;;4942442;29;20036;-80
2022/03/06 03:28:07;;;;;;;14.10;7.55;;;-0.90;99.90;;;;;;4962613;29;20038;-80
2022/03/06 03:30:33;;;;;;;14.40;7.38;;;-0.80;99.90;;;;;;4928983;28;20046;-80
2022/03/06 03:32:59;;;;;;;15.88;8.10;;;-1.00;99.90;;;;;;4962158;29;20039;-80
2022/03/06 03:35:24;;;;;;;14.82;7.72;;;-0.90;99.90;;;;;;4930598;29;20031;-80
2022/03/06 03:37:50;;;;;;;14.00;7.28;;;-0.80;99.90;;;;;;4945355;28;20038;-80
2022/03/06 03:40:15;;;;;;;13.55;7.13;;;-0.90;99.90;;;;;;4947418;28;20093;-80
2022/03/06 03:42:41;;;;;;;13.88;6.35;;;-0.80;99.90;;;;;;4943976;28;20076;-82
2022/03/06 03:45:07;;;;;;;14.85;7.90;;;-0.80;99.90;;;;;;4958669;29;20028;-82
2022/03/06 03:47:33;;;;;;;13.50;7.68;;;-0.80;99.90;;;;;;4948077;28;20027;-82
2022/03/06 03:49:59;;;;;;;16.00;8.45;;;-1.70;99.90;;;;;;4932723;29;20031;-82
2022/03/06 03:52:25;;;;;;;13.82;7.63;;;-0.80;99.90;;;;;;4957618;29;20063;-82
2022/03/06 03:54:50;;;;;;;16.90;7.68;;;-0.70;99.90;;;;;;4940239;29;20032;-82
2022/03/06 03:57:16;;;;;;;15.05;7.53;;;-0.80;99.90;;;;;;4940183;29;20031;-81
2022/03/06 03:59:42;;;;;;;15.93;7.47;;;-0.80;99.90;;;;;;4956584;29;20020;-81
2022/03/06 04:02:08;;;;;;;13.30;7.72;;;-0.50;99.90;;;;;;4939418;28;20031;-81
2022/03/06 04:04:34;;;;;;;14.35;7.55;;;-0.50;99.90;;;;;;4940753;28;20095;-80
2022/03/06 04:07:00;;;;;;;12.65;7.18;;;-0.50;99.90;;;;;;4923863;28;20027;-82
2022/03/06 04:09:25;;;;;;;13.75;7.03;;;-0.40;99.90;;;;;;4923858;28;20492;-81
2022/03/06 04:11:51;;;;;;;14.00;6.85;;;-0.70;99.90;;;;;;4940204;29;20043;-82
2022/03/06 04:14:17;;;;;;;15.52;7.85;;;1.10;99.90;;;;;;4957105;29;20031;-83
2022/03/06 04:16:43;;;;;;;16.63;7.97;;;-0.70;99.90;;;;;;4921011;29;20051;-80
2022/03/06 04:19:09;;;;;;;14.75;7.63;;;-0.70;99.90;;;;;;4904995;29;20450;-81
2022/03/06 04:21:35;;;;;;;12.30;6.95;;;-0.70;99.90;;;;;;4937320;29;20016;-82
2022/03/06 04:24:01;;;;;;;13.07;7.53;;;-0.80;99.90;;;;;;4937762;28;20028;-82
2022/03/06 04:26:27;;;;;;;13.55;6.88;;;-0.70;99.90;;;;;;4921020;28;20177;-81
2022/03/06 04:28:52;;;;;;;12.88;6.72;;;-0.70;99.90;;;;;;4921377;28;20103;-82
2022/03/06 04:31:18;;;;;;;14.60;7.82;;;-0.70;99.90;;;;;;4935183;28;20102;-82
2022/03/06 04:33:44;;;;;;;15.40;7.30;;;-0.90;99.90;;;;;;4940160;28;20035;-83
2022/03/06 04:36:10;;;;;;;14.13;7.78;;;-0.70;99.90;;;;;;4940680;28;20080;-81
2022/03/06 04:38:36;;;;;;;16.27;7.68;;;-0.90;99.90;;;;;;4958534;29;20403;-82
2022/03/06 04:41:02;;;;;;;13.75;7.57;;;0.50;99.90;;;;;;4940786;28;20038;-82
2022/03/06 04:43:28;;;;;;;16.58;7.95;;;-0.90;99.90;;;;;;4956865;28;20047;-83
2022/03/06 04:45:53;;;;;;;14.60;7.55;;;-1.00;99.90;;;;;;4924080;29;20031;-82
2022/03/06 04:48:19;;;;;;;16.05;8.05;;;-1.00;99.90;;;;;;4943508;29;20038;-81
2022/03/06 04:50:45;;;;;;;14.43;7.45;;;-1.10;99.90;;;;;;4930433;29;20089;-82
2022/03/06 04:53:10;;;;;;;13.65;7.40;;;-1.10;99.90;;;;;;4967482;29;20066;-83
2022/03/06 04:55:36;;;;;;;15.63;7.68;;;-1.20;99.90;;;;;;4935616;29;20051;-83
2022/03/06 04:58:02;;;;;;;14.38;7.43;;;-1.00;99.90;;;;;;4934794;29;20567;-80
2022/03/06 05:00:27;;;;;;;14.23;7.20;;;-0.90;99.90;;;;;;4954154;28;20031;-82
2022/03/06 05:02:53;;;;;;;13.30;7.35;;;-1.00;99.90;;;;;;4953957;28;20549;-81
2022/03/06 05:05:19;;;;;;;14.23;7.32;;;-1.00;99.90;;;;;;4954428;28;20026;-80
2022/03/06 05:07:45;;;;;;;14.23;7.80;;;-0.90;99.90;;;;;;4945531;28;20057;-83
2022/03/06 05:10:10;;;;;;;15.25;7.63;;;-1.10;99.90;;;;;;4944003;29;20031;-82
2022/03/06 05:12:38;;;;;;;13.23;7.53;;;-0.90;99.90;;;;;;4929233;28;20035;-82
2022/03/06 05:15:05;;;;;;;14.60;7.78;;;-1.00;99.90;;;;;;4944425;29;20447;-83
2022/03/06 05:17:30;;;;;;;14.00;6.90;;;-1.00;99.90;;;;;;4962236;28;20019;-83
2022/03/06 05:19:56;;;;;;;13.57;8.02;;;-0.90;99.90;;;;;;4968311;29;20031;-82
2022/03/06 05:22:21;;;;;;;14.48;7.75;;;-1.20;99.90;;;;;;4961476;28;20015;-82
2022/03/06 05:24:47;;;;;;;15.93;7.97;;;-1.10;99.90;;;;;;4960327;29;20019;-83
2022/03/06 05:27:13;;;;;;;14.27;7.53;;;-1.20;99.90;;;;;;4959468;29;20018;-84
2022/03/06 05:29:38;;;;;;;15.00;7.63;;;-1.00;99.90;;;;;;4945463;28;20022;-82
2022/03/06 05:32:04;;;;;;;13.23;7.22;;;-0.90;99.90;;;;;;4949465;29;20036;-82
2022/03/06 05:34:31;;;;;;;14.35;7.43;;;-0.90;99.90;;;;;;4959183;29;20031;-82
2022/03/06 05:36:56;;;;;;;15.48;8.27;;;-0.90;99.90;;;;;;4948940;29;20031;-83
2022/03/06 05:39:22;;;;;;;15.10;8.25;;;-1.00;99.90;;;;;;4945062;29;20518;-82
2022/03/06 05:41:48;;;;;;;13.63;7.68;;;-0.90;99.90;;;;;;4939961;29;20112;-82
2022/03/06 05:44:13;;;;;;;12.98;6.93;;;-0.70;99.90;;;;;;4957779;29;20034;-81
2022/03/06 05:46:39;;;;;;;15.57;7.47;;;-0.70;99.90;;;;;;4957798;29;21022;-82
2022/03/06 05:49:12;;;;;;;13.82;7.78;;;-0.80;99.90;;;;;;4939888;29;20031;-81
2022/03/06 05:51:40;;;;;;;15.02;7.78;;;-0.40;99.90;;;;;;4956643;29;20039;-82
2022/03/06 05:54:07;;;;;;;12.88;7.20;;;-0.60;99.90;;;;;;4958001;28;20035;-81
2022/03/06 05:56:33;;;;;;;16.95;7.53;;;-0.60;99.90;;;;;;4939896;28;20121;-82
2022/03/06 05:58:59;;;;;;;11.95;6.97;;;-0.50;99.90;;;;;;4957147;29;20562;-83
2022/03/06 06:01:25;;;;;;;15.15;7.90;;;-0.50;99.90;;;;;;4957787;28;20019;-81
2022/03/06 06:03:50;;;;;;;12.55;7.03;;;-0.50;99.90;;;;;;4940340;29;20074;-82
2022/03/06 06:06:16;;;;;;;14.70;8.68;;;-0.70;99.90;;;;;;4923865;28;20028;-84
2022/03/06 06:08:42;;;;;;;13.02;7.32;;;-0.40;99.90;;;;;;4940466;28;20429;-81
2022/03/06 06:11:07;;;;;;;13.38;7.35;;;-0.40;99.90;;;;;;4924817;28;20027;-81
2022/03/06 06:13:33;;;;;;;14.73;7.53;;;-0.40;99.90;;;;;;4925025;28;20061;-81
2022/03/06 06:15:59;;;;;;;15.18;7.75;;;-0.20;99.90;;;;;;4957956;29;20444;-82
2022/03/06 06:18:27;;;;;;;14.73;7.45;;;-0.30;99.90;;;;;;4936250;28;20031;-82
2022/03/06 06:20:53;;;;;;;14.07;8.10;;;0.20;99.90;;;;;;4936726;28;20019;-81
2022/03/06 06:23:19;;;;;;;14.82;7.93;;;-0.30;99.90;;;;;;4921279;28;20028;-81
2022/03/06 06:25:45;;;;;;;15.50;8.45;;;-0.20;99.90;;;;;;4921078;28;20042;-81
2022/03/06 06:28:10;;;;;;;14.45;7.68;;;1.70;99.90;;;;;;4938301;28;20024;-81
2022/03/06 06:30:36;;;;;;;16.65;9.02;;;-0.20;99.90;;;;;;4935699;29;20493;-81
2022/03/06 06:33:01;;;;;;;16.33;7.80;;;-0.30;99.90;;;;;;4938175;28;20039;-83
2022/03/06 06:35:27;;;;;;;15.07;8.65;;;-0.20;99.90;;;;;;4940071;28;20062;-83
2022/03/06 06:37:53;;;;;;;13.52;8.43;;;-0.30;99.90;;;;;;4922365;28;20036;-82
2022/03/06 06:40:18;;;;;;;15.05;8.10;;;-0.40;99.90;;;;;;4936233;28;20028;-83
2022/03/06 06:42:44;;;;;;;16.40;8.43;;;1.90;99.90;;;;;;4936810;28;20035;-83
2022/03/06 06:45:10;;;;;;;15.52;8.13;;;1.00;99.90;;;;;;5003635;28;20476;-83
2022/03/06 06:47:36;;;;;;;17.25;9.52;;;0.00;99.90;;;;;;4947351;29;20472;-82
2022/03/06 06:50:03;;;;;;;16.20;8.50;;;-0.30;99.90;;;;;;4956148;29;20106;-82
2022/03/06 06:52:28;;;;;;;21.58;11.20;;;0.80;99.90;;;;;;4954965;28;20031;-83
2022/03/06 06:54:54;;;;;;;18.60;10.23;;;0.00;99.90;;;;;;4939622;28;20050;-83
2022/03/06 06:57:19;;;;;;;14.90;9.38;;;-0.10;99.90;;;;;;4924405;28;20118;-82
2022/03/06 06:59:45;;;;;;;18.95;10.00;;;0.00;99.90;;;;;;4939799;28;20078;-84
2022/03/06 07:02:10;;;;;;;17.15;8.98;;;0.00;99.90;;;;;;4940303;28;20058;-83
2022/03/06 07:04:36;;;;;;;17.88;9.27;;;-0.10;99.90;;;;;;4924823;28;20023;-83
2022/03/06 07:07:02;;;;;;;16.92;9.48;;;0.10;99.90;;;;;;4939801;29;20066;-83
2022/03/06 07:09:27;;;;;;;16.75;9.75;;;0.30;99.90;;;;;;4956980;29;20449;-83
2022/03/06 07:11:53;;;;;;;17.58;8.48;;;0.00;99.90;;;;;;4954097;29;20430;-83
2022/03/06 07:14:19;;;;;;;15.63;8.20;;;0.20;99.90;;;;;;4944431;29;20028;-82
2022/03/06 07:16:45;;;;;;;16.17;9.18;;;2.60;99.90;;;;;;4943159;28;20043;-83
2022/03/06 07:19:11;;;;;;;15.93;8.65;;;0.40;99.90;;;;;;4930903;29;20024;-85
2022/03/06 07:21:37;;;;;;;14.50;8.48;;;0.60;99.90;;;;;;4955317;28;20499;-83
2022/03/06 07:24:07;;;;;;;18.23;9.10;;;0.70;99.90;;;;;;4953796;28;20031;-82
2022/03/06 07:26:32;;;;;;;15.00;8.18;;;0.70;99.90;;;;;;4955114;29;20023;-84
2022/03/06 07:28:58;;;;;;;14.85;7.88;;;0.70;99.90;;;;;;5027006;28;20020;-80
2022/03/06 07:31:24;;;;;;;15.48;8.52;;;0.90;99.90;;;;;;4961010;29;20038;-84
2022/03/06 07:33:49;;;;;;;14.68;8.43;;;0.90;99.90;;;;;;4968203;29;20024;-83
2022/03/06 07:36:15;;;;;;;13.02;7.90;;;1.10;99.90;;;;;;4951516;29;20031;-83
2022/03/06 07:38:40;;;;;;;13.50;7.95;;;1.30;99.90;;;;;;4938115;28;20041;-83
2022/03/06 07:41:06;;;;;;;14.45;7.88;;;3.60;99.90;;;;;;4956326;29;20042;-84
2022/03/06 07:43:32;;;;;;;14.15;7.70;;;1.40;99.90;;;;;;5023151;28;20027;-84
2022/03/06 07:45:57;;;;;;;16.85;8.68;;;1.40;99.90;;;;;;4956831;29;20066;-84
2022/03/06 07:48:23;;;;;;;15.70;8.10;;;1.60;99.90;;;;;;4939027;29;20763;-84
2022/03/06 07:50:49;;;;;;;14.88;8.80;;;1.90;99.90;;;;;;4954844;29;20027;-84
2022/03/06 07:53:15;;;;;;;18.00;8.98;;;1.80;99.90;;;;;;4921364;29;20028;-84
2022/03/06 07:55:40;;;;;;;15.27;8.75;;;1.80;99.90;;;;;;4939757;29;20036;-84
2022/03/06 07:58:06;;;;;;;14.73;7.75;;;1.90;99.90;;;;;;4939443;28;20055;-84
2022/03/06 08:00:32;;;;;;;13.85;8.70;;;1.90;99.90;;;;;;4921249;29;20039;-83
2022/03/06 08:02:57;;;;;;;14.75;8.35;;;2.10;99.90;;;;;;4954820;29;20622;-84
2022/03/06 08:05:23;;;;;;;13.57;8.27;;;3.00;99.90;;;;;;4933681;28;20077;-83
2022/03/06 08:07:49;;;;;;;13.68;8.27;;;2.40;99.90;;;;;;4922257;28;20066;-83
2022/03/06 08:10:16;;;;;;;14.77;8.45;;;2.50;99.90;;;;;;4951443;28;20046;-81
2022/03/06 08:12:41;;;;;;;14.45;7.68;;;1.60;99.90;;;;;;4938295;28;20046;-80
2022/03/06 08:15:09;;;;;;;12.70;7.78;;;3.20;99.90;;;;;;4932791;29;20059;-81
2022/03/06 08:17:36;;;;;;;13.77;8.32;;;3.00;99.90;;;;;;4933680;29;20054;-81
2022/03/06 08:20:03;;;;;;;13.57;8.10;;;3.00;99.90;;;;;;4935290;29;20473;-81
2022/03/06 08:22:29;;;;;;;14.77;8.32;;;3.30;99.90;;;;;;4948427;29;20023;-81
2022/03/06 08:24:55;;;;;;;13.57;8.32;;;3.70;99.90;;;;;;4952722;29;20016;-82
2022/03/06 08:27:21;;;;;;;11.63;7.65;;;3.60;99.90;;;;;;4955896;29;20027;-82
2022/03/06 08:29:47;;;;;;;13.57;8.73;;;3.70;99.90;;;;;;4955010;29;20020;-82
2022/03/06 08:32:13;;;;;;;15.77;9.00;;;5.90;99.90;;;;;;4939016;28;20038;-81
2022/03/06 08:34:38;;;;;;;13.40;8.68;;;4.00;99.90;;;;;;4936791;29;20219;-81
2022/03/06 08:37:04;;;;;;;16.35;8.45;;;4.00;99.90;;;;;;4936532;29;20043;-81
2022/03/06 08:39:30;;;;;;;13.27;8.73;;;4.00;99.90;;;;;;4956217;29;20442;-82
2022/03/06 08:41:55;;;;;;;12.57;7.57;;;4.10;99.90;;;;;;4922367;28;20049;-80
2022/03/06 08:44:21;;;;;;;15.05;9.27;;;5.70;99.90;;;;;;4922404;28;20032;-79
2022/03/06 08:46:47;;;;;;;15.25;8.90;;;4.30;99.90;;;;;;4924621;28;20063;-80
2022/03/06 08:49:13;;;;;;;15.98;8.73;;;4.40;99.90;;;;;;4956647;29;20033;-79
2022/03/06 08:51:39;;;;;;;19.02;9.68;;;4.40;99.90;;;;;;4956571;28;20034;-79
2022/03/06 08:54:04;;;;;;;16.10;8.70;;;4.50;99.90;;;;;;4958128;29;20417;-80
2022/03/06 08:56:30;;;;;;;17.60;9.15;;;4.70;99.90;;;;;;4958499;29;20035;-80
2022/03/06 08:58:56;;;;;;;13.63;8.38;;;5.10;99.90;;;;;;4958461;29;20038;-80
2022/03/06 09:01:21;;;;;;;12.07;7.78;;;5.20;99.90;;;;;;4941911;29;20031;-79
2022/03/06 09:03:47;;;;;;;11.95;7.75;;;5.90;99.90;;;;;;4958371;29;20055;-79
2022/03/06 09:06:13;;;;;;;14.85;8.85;;;7.00;98.60;;;;;;4959070;29;20515;-79
2022/03/06 09:08:39;;;;;;;13.38;8.00;;;8.30;96.90;;;;;;4944317;29;20031;-81
2022/03/06 09:11:06;;;;;;;12.40;8.73;;;8.00;95.90;;;;;;4928006;29;20036;-77
2022/03/06 09:13:32;;;;;;;12.05;7.68;;;7.20;95.00;;;;;;4944884;29;20095;-81
2022/03/06 09:15:58;;;;;;;13.75;8.43;;;8.10;92.80;;;;;;4929979;28;20032;-81
2022/03/06 09:18:24;;;;;;;15.05;9.13;;;8.70;90.70;;;;;;4956829;29;20031;-80
2022/03/06 09:20:50;;;;;;;13.63;8.63;;;9.90;85.00;;;;;;4955736;29;20078;-78
2022/03/06 09:23:16;;;;;;;13.10;9.00;;;10.80;79.40;;;;;;4955871;28;20032;-80
2022/03/06 09:25:42;;;;;;;15.23;8.75;;;11.80;75.90;;;;;;4994510;28;20455;-78
2022/03/06 09:28:08;;;;;;;13.55;8.85;;;10.60;75.10;;;;;;4957562;28;20024;-78
2022/03/06 09:30:34;;;;;;;13.77;8.95;;;10.50;74.50;;;;;;4939814;28;20031;-78
2022/03/06 09:33:00;;;;;;;13.20;9.18;;;10.50;73.90;;;;;;4956580;28;20117;-77
2022/03/06 09:35:25;;;;;;;13.60;8.73;;;10.60;73.80;;;;;;4938613;28;20039;-78
2022/03/06 09:37:51;;;;;;;15.02;9.57;;;10.70;72.60;;;;;;4939421;28;20036;-78
2022/03/06 09:40:18;;;;;;;12.65;8.68;;;11.40;71.30;;;;;;4955028;29;20031;-78
2022/03/06 09:42:44;;;;;;;14.80;9.45;;;11.80;69.00;;;;;;4922423;28;20042;-78
2022/03/06 09:45:13;;;;;;;12.93;8.38;;;11.90;68.70;;;;;;4981382;23;20129;-78
2022/03/06 09:47:41;;;;;;;12.18;9.05;;;12.60;66.20;;;;;;4971715;28;20031;-78
2022/03/06 09:50:09;;;;;;;12.90;8.35;;;13.30;64.20;;;;;;4964531;28;20092;-79
2022/03/06 09:52:35;;;;;;;12.93;8.48;;;13.90;61.90;;;;;;5011006;28;20032;-79
2022/03/06 09:55:01;;;;;;;13.82;8.45;;;14.30;60.90;;;;;;4939677;28;20032;-80
2022/03/06 09:57:27;;;;;;;10.70;7.72;;;13.60;58.30;;;;;;4938400;29;20087;-80
2022/03/06 09:59:52;;;;;;;15.27;9.13;;;13.40;58.70;;;;;;4936441;29;20469;-80
2022/03/06 10:02:18;;;;;;;11.95;7.97;;;14.10;57.80;;;;;;4955766;29;20047;-80
2022/03/06 10:04:46;;;;;;;10.40;7.82;;;15.50;56.80;;;;;;4939203;29;20038;-80
2022/03/06 10:07:17;;;;;;;10.85;7.63;;;14.80;54.90;;;;;;4956183;29;20027;-80
2022/03/06 10:09:49;;;;;;;9.77;6.95;;;15.30;51.10;;;;;;4955339;29;20081;-79
2022/03/06 10:12:35;;;;;;;11.57;7.30;;;15.10;51.30;;;;;;4955957;29;20055;-80
2022/03/06 10:15:06;;;;;;;11.98;6.95;;;14.50;50.90;;;;;;4956356;28;20047;-80
2022/03/06 10:17:33;;;;;;;10.23;7.38;;;14.90;51.10;;;;;;4956210;29;20031;-79
2022/03/06 10:20:03;;;;;;;10.65;7.13;;;14.80;51.00;;;;;;4955373;29;20063;-80
2022/03/06 10:22:36;;;;;;;10.30;6.88;;;14.90;50.60;;;;;;4938188;29;20432;-80
2022/03/06 10:25:12;;;;;;;10.95;6.78;;;14.90;49.30;;;;;;4955886;28;20027;-79
2022/03/06 10:27:44;;;;;;;8.95;6.55;;;14.60;48.30;;;;;;4955494;29;20089;-79
2022/03/06 10:30:34;;;;;;;9.77;6.75;;;15.10;51.70;;;;;;4954538;29;20031;-79
2022/03/06 10:33:10;;;;;;;10.43;6.97;;;13.30;50.40;;;;;;4955847;29;20049;-80
2022/03/06 10:35:41;;;;;;;9.98;6.65;;;12.80;51.80;;;;;;4957084;29;20031;-80
2022/03/06 10:38:27;;;;;;;10.40;7.03;;;11.40;54.70;;;;;;4955606;28;20028;-79
2022/03/06 10:40:55;;;;;;;10.45;6.82;;;10.60;56.40;;;;;;4957052;28;20529;-80
2022/03/06 10:43:28;;;;;;;9.93;6.43;;;9.00;58.50;;;;;;4940409;28;20126;-79
2022/03/06 10:46:15;;;;;;;10.70;6.88;;;8.70;57.80;;;;;;4956803;28;20043;-80
2022/03/06 10:48:44;;;;;;;12.55;6.70;;;10.40;58.00;;;;;;4937337;29;20062;-80
2022/03/06 10:51:13;;;;;;;10.63;5.95;;;10.90;54.60;;;;;;4955329;28;20032;-80
2022/03/06 10:53:40;;;;;;;8.75;6.22;;;10.80;54.60;;;;;;4956115;29;20043;-80
2022/03/06 10:56:08;;;;;;;9.77;6.45;;;10.50;54.50;;;;;;4949678;29;20059;-80
2022/03/06 10:58:36;;;;;;;12.00;6.38;;;10.20;54.80;;;;;;4934861;29;20107;-79
2022/03/06 11:01:02;;;;;;;9.80;6.20;;;9.40;56.30;;;;;;4953403;29;20492;-79
2022/03/06 11:03:31;;;;;;;10.00;6.45;;;11.30;59.30;;;;;;4955569;29;20038;-79
2022/03/06 11:05:57;;;;;;;11.45;7.35;;;8.50;59.00;;;;;;4956750;28;20024;-79
2022/03/06 11:08:24;;;;;;;11.35;6.97;;;8.10;60.30;;;;;;4953268;29;20173;-79
2022/03/06 11:10:50;;;;;;;13.60;8.98;;;7.90;61.10;;;;;;4953901;29;20031;-79
2022/03/06 11:13:16;;;;;;;10.65;7.45;;;7.80;62.10;;;;;;4954085;29;20092;-79
2022/03/06 11:15:42;;;;;;;11.57;6.30;;;8.60;62.40;;;;;;4954457;29;20396;-79
2022/03/06 11:18:07;;;;;;;9.77;6.13;;;7.50;61.20;;;;;;4954613;29;20036;-79
2022/03/06 11:20:34;;;;;;;8.55;5.75;;;7.60;61.90;;;;;;4951824;28;20031;-77
2022/03/06 11:23:20;;;;;;;9.25;6.05;;;7.60;61.30;;;;;;4952268;29;20432;-77
2022/03/06 11:26:00;;;;;;;8.82;5.70;;;8.20;58.60;;;;;;4952963;29;20110;-77
2022/03/06 11:28:45;;;;;;;11.05;6.53;;;7.80;59.80;;;;;;4952279;29;20042;-77
2022/03/06 11:31:11;;;;;;;9.23;6.07;;;8.10;57.50;;;;;;4952718;28;20061;-78
2022/03/06 11:33:52;;;;;;;8.85;5.72;;;8.30;59.00;;;;;;4954027;28;20054;-78
2022/03/06 11:36:21;;;;;;;10.70;6.50;;;8.90;58.80;;;;;;4951536;29;20035;-77
2022/03/06 11:38:48;;;;;;;9.88;6.38;;;12.20;56.60;;;;;;4951022;29;20023;-77
2022/03/06 11:41:14;;;;;;;9.93;6.25;;;12.70;51.60;;;;;;4953225;29;20042;-79
2022/03/06 11:43:44;;;;;;;8.18;6.07;;;14.40;50.20;;;;;;4954104;28;20149;-78
2022/03/06 11:46:21;;;;;;;8.55;5.65;;;14.60;48.50;;;;;;4953332;29;20457;-78
2022/03/06 11:48:46;;;;;;;7.80;5.68;;;15.60;46.80;;;;;;4946206;28;20506;-79
2022/03/06 11:51:15;;;;;;;8.52;6.05;;;16.30;44.50;;;;;;4953265;28;20027;-79
2022/03/06 11:53:50;;;;;;;9.05;6.00;;;16.00;45.40;;;;;;4953896;28;20137;-77
2022/03/06 11:56:39;;;;;;;7.45;5.60;;;16.60;45.60;;;;;;4951916;29;20503;-78
2022/03/06 11:59:17;;;;;;;7.68;5.95;;;15.60;44.80;;;;;;4951592;28;20042;-78
2022/03/06 12:01:58;;;;;;;8.50;6.07;;;16.10;44.60;;;;;;4954927;29;20024;-77
2022/03/06 12:04:32;;;;;;;10.32;6.47;;;14.50;44.00;;;;;;4955548;29;20039;-78
2022/03/06 12:07:00;;;;;;;8.63;5.80;;;13.00;46.00;;;;;;4954397;28;20034;-77
2022/03/06 12:09:35;;;;;;;7.43;5.55;;;13.60;50.10;;;;;;4953297;28;20424;-77
2022/03/06 12:12:04;;;;;;;9.18;6.18;;;12.30;50.10;;;;;;4954227;29;20506;-77
2022/03/06 12:14:32;;;;;;;9.40;6.22;;;12.60;49.20;;;;;;4954099;29;20054;-77
2022/03/06 12:17:06;;;;;;;8.40;5.45;;;13.70;47.90;;;;;;4953257;29;20042;-77
2022/03/06 12:19:54;;;;;;;7.82;5.85;;;14.70;45.70;;;;;;4953463;29;20023;-78
2022/03/06 12:22:28;;;;;;;9.65;6.13;;;15.60;45.70;;;;;;4953695;29;20027;-77
2022/03/06 12:25:06;;;;;;;8.20;5.72;;;16.30;42.80;;;;;;4954019;29;20031;-77
2022/03/06 12:27:32;;;;;;;8.27;5.80;;;17.00;43.30;;;;;;4953954;29;20054;-77
2022/03/06 12:30:00;;;;;;;9.27;6.38;;;17.20;42.90;;;;;;4953346;29;20027;-77
2022/03/06 12:32:29;;;;;;;10.90;5.85;;;14.90;44.90;;;;;;4953824;29;20118;-76
2022/03/06 12:34:59;;;;;;;9.52;6.43;;;13.50;46.20;;;;;;4953702;29;20540;-77
2022/03/06 12:37:35;;;;;;;9.57;5.97;;;14.10;48.90;;;;;;4953525;29;20157;-76
2022/03/06 12:40:03;;;;;;;9.00;5.78;;;11.90;49.90;;;;;;4953121;29;20019;-76
2022/03/06 12:42:31;;;;;;;8.23;6.00;;;11.30;51.50;;;;;;4953130;29;20117;-76